createdAt,value
2019-02-26T00:00:44.971Z,4.53
2019-02-26T00:03:12.276Z,4.20
2019-02-26T00:05:41.856Z,4.30
2019-02-26T00:08:11.299Z,4.30
2019-02-26T00:10:40.763Z,3.73
2019-02-26T00:13:10.163Z,3.77
2019-02-26T00:15:40.540Z,3.47
2019-02-26T00:18:11.727Z,3.40
2019-02-26T00:20:41.739Z,3.73
2019-02-26T00:23:11.114Z,3.60
2019-02-26T00:25:40.591Z,4.20
2019-02-26T00:28:11.127Z,3.70
2019-02-26T00:30:42.498Z,3.73
2019-02-26T00:33:12.148Z,3.07
2019-02-26T00:35:42.166Z,3.57
2019-02-26T00:38:13.350Z,3.70
2019-02-26T00:40:43.726Z,3.57
2019-02-26T00:43:13.143Z,3.77
2019-02-26T00:45:42.539Z,3.60
2019-02-26T00:48:11.931Z,3.30
2019-02-26T00:50:41.445Z,3.63
2019-02-26T00:53:10.855Z,3.87
2019-02-26T00:55:40.264Z,4.07
2019-02-26T00:58:10.766Z,3.87
2019-02-26T01:00:40.935Z,4.00
2019-02-26T01:03:11.517Z,3.73
2019-02-26T01:05:43.122Z,3.50
2019-02-26T01:08:13.443Z,3.50
2019-02-26T01:11:03.914Z,3.53
2019-02-26T01:13:33.830Z,3.70
2019-02-26T01:16:03.295Z,3.60
2019-02-26T01:18:32.715Z,3.73
2019-02-26T01:21:04.270Z,3.77
2019-02-26T01:23:33.233Z,3.67
2019-02-26T01:26:02.681Z,4.00
2019-02-26T01:28:32.039Z,3.20
2019-02-26T01:31:04.527Z,3.70
2019-02-26T01:33:34.193Z,20.27
2019-02-26T01:36:03.663Z,14.83
2019-02-26T01:38:33.151Z,6.57
2019-02-26T01:41:02.615Z,4.47
2019-02-26T01:43:32.066Z,3.80
2019-02-26T01:46:01.551Z,8.57
2019-02-26T01:48:32.085Z,14.90
2019-02-26T01:51:03.398Z,4.40
2019-02-26T01:53:33.026Z,9.40
2019-02-26T01:56:04.526Z,10.00
2019-02-26T01:58:34.093Z,8.50
2019-02-26T02:01:03.735Z,6.83
2019-02-26T02:03:33.181Z,5.17
2019-02-26T02:06:57.115Z,5.20
2019-02-26T02:09:27.538Z,6.07
2019-02-26T02:11:58.266Z,5.97
2019-02-26T02:14:28.535Z,24.37
2019-02-26T02:22:33.495Z,7.40
2019-02-26T02:25:04.553Z,7.50
2019-02-26T02:27:34.126Z,7.13
2019-02-26T02:30:03.766Z,5.33
2019-02-26T02:32:34.487Z,6.20
2019-02-26T02:35:06.850Z,5.30
2019-02-26T02:37:35.533Z,5.73
2019-02-26T02:40:05.289Z,5.37
2019-02-26T02:42:37.176Z,5.73
2019-02-26T02:45:08.307Z,5.20
2019-02-26T02:47:38.799Z,5.30
2019-02-26T02:50:12.645Z,5.10
2019-02-26T02:52:41.346Z,5.90
2019-02-26T02:55:13.872Z,6.53
2019-02-26T02:57:41.964Z,6.67
2019-02-26T03:00:12.144Z,6.30
2019-02-26T03:02:43.284Z,6.03
2019-02-26T03:05:12.991Z,6.33
2019-02-26T03:07:44.943Z,6.00
2019-02-26T03:10:13.995Z,6.17
2019-02-26T03:12:47.362Z,5.83
2019-02-26T03:15:14.690Z,5.20
2019-02-26T03:17:44.165Z,5.50
2019-02-26T03:20:13.708Z,7.40
2019-02-26T03:22:48.379Z,6.07
2019-02-26T03:25:17.390Z,7.57
2019-02-26T03:27:45.644Z,7.60
2019-02-26T03:30:26.401Z,5.97
2019-02-26T03:32:56.071Z,7.83
2019-02-26T03:35:23.071Z,6.93
2019-02-26T03:37:54.129Z,6.07
2019-02-26T03:40:24.205Z,3.53
2019-02-26T03:42:53.312Z,3.70
2019-02-26T03:45:24.690Z,4.00
2019-02-26T03:47:55.432Z,5.83
2019-02-26T03:50:27.073Z,4.20
2019-02-26T03:52:55.999Z,6.77
2019-02-26T03:55:25.459Z,4.33
2019-02-26T03:57:58.547Z,8.83
2019-02-26T04:00:25.922Z,10.20
2019-02-26T04:02:55.350Z,8.10
2019-02-26T04:05:24.773Z,3.03
2019-02-26T04:07:55.645Z,4.70
2019-02-26T04:10:25.291Z,4.83
2019-02-26T04:12:56.204Z,4.10
2019-02-26T04:15:27.932Z,5.27
2019-02-26T04:17:57.018Z,3.70
2019-02-26T04:20:27.837Z,4.30
2019-02-26T04:22:57.502Z,4.47
2019-02-26T04:25:56.875Z,4.97
2019-02-26T04:28:34.067Z,4.77
2019-02-26T04:31:37.103Z,4.50
2019-02-26T04:34:39.957Z,3.90
2019-02-26T04:37:46.484Z,3.30
2019-02-26T04:41:02.960Z,6.13
2019-02-26T04:44:22.628Z,10.43
2019-02-26T04:47:11.564Z,13.73
2019-02-26T04:49:42.925Z,13.57
2019-02-26T04:52:14.370Z,10.00
2019-02-26T04:54:43.425Z,7.20
2019-02-26T04:57:12.894Z,10.63
2019-02-26T04:59:43.836Z,9.93
2019-02-26T05:02:13.547Z,8.70
2019-02-26T05:04:43.052Z,7.07
2019-02-26T05:07:14.031Z,5.57
2019-02-26T05:09:44.019Z,3.13
2019-02-26T05:12:13.467Z,3.30
2019-02-26T05:14:42.897Z,4.20
2019-02-26T05:17:12.298Z,2.73
2019-02-26T05:19:43.368Z,3.70
2019-02-26T05:22:12.820Z,3.73
2019-02-26T05:24:44.344Z,3.53
2019-02-26T05:27:19.686Z,4.60
2019-02-26T05:29:49.164Z,2.73
2019-02-26T05:32:21.246Z,3.53
2019-02-26T05:34:50.859Z,3.50
2019-02-26T05:37:20.528Z,3.70
2019-02-26T05:39:51.556Z,3.70
2019-02-26T05:42:21.014Z,4.50
2019-02-26T05:44:53.776Z,4.13
2019-02-26T05:47:23.902Z,4.87
2019-02-26T05:49:52.875Z,5.07
2019-02-26T05:52:24.289Z,5.10
2019-02-26T05:54:53.420Z,5.27
2019-02-26T05:57:31.244Z,4.93
2019-02-26T05:59:53.929Z,3.47
2019-02-26T06:02:24.584Z,2.57
2019-02-26T06:04:54.238Z,2.87
2019-02-26T06:07:25.096Z,2.77
2019-02-26T06:09:56.432Z,4.07
2019-02-26T06:12:25.872Z,4.87
2019-02-26T06:14:58.433Z,5.03
2019-02-26T06:17:26.503Z,5.53
2019-02-26T06:20:01.413Z,6.80
2019-02-26T06:22:31.799Z,7.67
2019-02-26T06:25:06.969Z,8.50
2019-02-26T06:27:32.097Z,7.13
2019-02-26T06:30:05.952Z,5.20
2019-02-26T06:32:34.660Z,3.80
2019-02-26T06:35:06.165Z,3.60
2019-02-26T06:37:35.940Z,2.50
2019-02-26T06:40:07.488Z,2.87
2019-02-26T06:42:38.058Z,2.83
2019-02-26T06:45:10.890Z,2.67
2019-02-26T06:47:40.365Z,2.57
2019-02-26T06:50:11.163Z,2.80
2019-02-26T06:52:43.037Z,2.23
2019-02-26T06:55:12.921Z,2.77
2019-02-26T06:57:46.377Z,3.00
2019-02-26T07:00:16.231Z,3.73
2019-02-26T07:02:46.216Z,4.33
2019-02-26T07:05:16.327Z,3.47
2019-02-26T07:07:45.806Z,3.23
2019-02-26T07:10:18.387Z,3.10
2019-02-26T07:12:48.762Z,3.37
2019-02-26T07:15:17.741Z,4.97
2019-02-26T07:17:47.219Z,5.23
2019-02-26T07:20:16.744Z,7.30
2019-02-26T07:22:48.962Z,7.10
2019-02-26T07:25:18.620Z,8.03
2019-02-26T07:27:48.412Z,7.90
2019-02-26T07:30:17.781Z,8.33
2019-02-26T07:32:48.227Z,7.73
2019-02-26T07:35:17.771Z,7.97
2019-02-26T07:37:47.121Z,8.97
2019-02-26T07:40:18.625Z,9.10
2019-02-26T07:42:49.223Z,8.40
2019-02-26T07:45:20.370Z,6.90
2019-02-26T07:47:51.448Z,5.87
2019-02-26T07:50:21.015Z,5.23
2019-02-26T07:52:52.168Z,5.17
2019-02-26T07:55:21.566Z,4.90
2019-02-26T07:57:53.048Z,4.97
2019-02-26T08:00:22.985Z,7.13
2019-02-26T08:02:56.451Z,8.10
2019-02-26T08:05:25.774Z,8.93
2019-02-26T08:07:56.563Z,9.70
2019-02-26T08:10:25.690Z,9.23
2019-02-26T08:12:56.667Z,8.43
2019-02-26T08:15:27.810Z,7.57
2019-02-26T08:17:59.948Z,7.30
2019-02-26T08:20:30.214Z,7.03
2019-02-26T08:23:01.310Z,10.57
2019-02-26T08:25:30.590Z,8.20
2019-02-26T08:28:01.231Z,6.20
2019-02-26T08:30:30.950Z,6.40
2019-02-26T08:33:04.324Z,9.20
2019-02-26T08:35:31.506Z,7.67
2019-02-26T08:38:00.982Z,8.40
2019-02-26T08:40:30.405Z,7.47
2019-02-26T08:42:59.802Z,7.13
2019-02-26T08:45:31.023Z,7.17
2019-02-26T08:48:00.713Z,7.10
2019-02-26T08:50:33.052Z,7.43
2019-02-26T08:53:01.232Z,8.77
2019-02-26T08:55:30.718Z,7.47
2019-02-26T08:58:00.118Z,7.73
2019-02-26T09:00:29.569Z,8.50
2019-02-26T09:02:59.034Z,8.37
2019-02-26T09:05:31.545Z,12.53
2019-02-26T09:07:59.545Z,14.37
2019-02-26T09:10:28.936Z,14.03
2019-02-26T09:12:58.418Z,13.10
2019-02-26T09:15:29.031Z,15.67
2019-02-26T09:17:58.924Z,16.90
2019-02-26T09:20:28.368Z,18.67
2019-02-26T09:22:59.527Z,21.67
2019-02-26T09:25:31.320Z,21.73
2019-02-26T09:27:59.951Z,20.40
2019-02-26T09:30:31.764Z,20.47
2019-02-26T09:33:00.930Z,21.07
2019-02-26T09:35:33.119Z,22.53
2019-02-26T09:38:02.658Z,22.70
2019-02-26T09:40:34.254Z,19.53
2019-02-26T09:43:03.235Z,19.07
2019-02-26T09:45:32.705Z,18.47
2019-02-26T09:48:02.263Z,18.63
2019-02-26T09:50:31.618Z,16.87
2019-02-26T09:53:00.974Z,16.70
2019-02-26T09:55:30.408Z,14.67
2019-02-26T09:57:59.890Z,14.60
2019-02-26T10:00:29.675Z,15.87
2019-02-26T10:02:59.404Z,15.43
2019-02-26T10:05:28.837Z,17.50
2019-02-26T10:08:00.448Z,19.10
2019-02-26T10:10:31.206Z,18.90
2019-02-26T10:13:02.899Z,17.77
2019-02-26T10:15:32.376Z,16.77
2019-02-26T10:18:04.846Z,18.83
2019-02-26T10:20:33.791Z,18.00
2019-02-26T10:23:06.034Z,17.53
2019-02-26T10:25:34.844Z,17.80
2019-02-26T10:28:08.833Z,19.33
2019-02-26T10:30:38.976Z,18.30
2019-02-26T10:33:08.640Z,20.13
2019-02-26T10:35:39.619Z,19.90
2019-02-26T10:38:11.520Z,19.70
2019-02-26T10:40:50.763Z,20.53
2019-02-26T10:43:11.316Z,20.93
2019-02-26T10:45:44.170Z,23.63
2019-02-26T10:48:13.521Z,22.53
2019-02-26T10:50:45.979Z,26.60
2019-02-26T10:53:16.336Z,26.27
2019-02-26T10:55:45.323Z,27.57
2019-02-26T10:58:14.734Z,28.63
2019-02-26T11:00:45.580Z,29.83
2019-02-26T11:03:16.909Z,30.63
2019-02-26T11:05:48.670Z,29.17
2019-02-26T11:08:17.314Z,30.73
2019-02-26T11:10:47.932Z,32.37
2019-02-26T11:13:20.215Z,30.40
2019-02-26T11:15:51.099Z,33.53
2019-02-26T11:18:21.119Z,32.63
2019-02-26T11:20:55.225Z,34.87
2019-02-26T11:23:30.464Z,34.03
2019-02-26T11:25:53.535Z,35.50
2019-02-26T11:28:27.134Z,33.20
2019-02-26T11:30:56.214Z,33.83
2019-02-26T11:33:25.248Z,33.47
2019-02-26T11:35:54.608Z,32.10
2019-02-26T11:38:24.011Z,32.50
2019-02-26T11:40:53.491Z,34.47
2019-02-26T11:43:25.992Z,33.23
2019-02-26T11:45:54.031Z,32.13
2019-02-26T11:48:25.745Z,33.17
2019-02-26T11:50:54.581Z,31.07
2019-02-26T11:53:23.952Z,29.87
2019-02-26T11:55:55.005Z,31.70
2019-02-26T11:58:26.891Z,32.53
2019-02-26T12:00:58.044Z,30.80
2019-02-26T12:03:30.205Z,32.60
2019-02-26T12:06:01.068Z,31.93
2019-02-26T12:08:29.672Z,34.97
2019-02-26T12:11:03.662Z,33.40
2019-02-26T12:13:30.388Z,33.17
2019-02-26T12:15:59.733Z,31.53
2019-02-26T12:18:29.127Z,32.07
2019-02-26T12:21:00.125Z,30.53
2019-02-26T12:23:29.620Z,30.10
2019-02-26T12:26:01.099Z,30.60
2019-02-26T12:28:34.162Z,28.27
2019-02-26T12:31:04.040Z,28.30
2019-02-26T12:33:32.638Z,27.23
2019-02-26T12:36:04.401Z,27.70
2019-02-26T12:38:36.523Z,26.90
2019-02-26T12:41:08.180Z,29.33
2019-02-26T12:43:36.804Z,34.00
2019-02-26T12:46:08.501Z,31.63
2019-02-26T12:48:40.470Z,39.27
2019-02-26T12:51:08.845Z,33.53
2019-02-26T12:56:15.920Z,28.33
2019-02-26T13:01:16.601Z,30.17
2019-02-26T13:03:49.716Z,29.20
2019-02-26T13:06:18.681Z,30.40
2019-02-26T13:08:50.541Z,32.67
2019-02-26T13:11:20.986Z,29.97
2019-02-26T13:13:53.252Z,29.27
2019-02-26T13:16:21.720Z,30.87
2019-02-26T13:18:55.407Z,28.60
2019-02-26T13:21:22.372Z,29.30
2019-02-26T13:23:51.824Z,28.73
2019-02-26T13:26:22.445Z,27.33
2019-02-26T13:28:55.422Z,27.53
2019-02-26T13:31:23.335Z,27.07
2019-02-26T13:33:52.839Z,27.60
2019-02-26T13:36:22.627Z,26.37
2019-02-26T13:38:52.152Z,28.27
2019-02-26T13:41:29.624Z,28.77
2019-02-26T13:43:52.637Z,27.47
2019-02-26T13:46:22.088Z,25.47
2019-02-26T13:48:51.531Z,25.47
2019-02-26T13:51:20.946Z,24.37
2019-02-26T13:53:50.408Z,23.83
2019-02-26T13:56:19.871Z,25.00
2019-02-26T13:58:49.349Z,25.30
2019-02-26T14:01:18.843Z,25.77
2019-02-26T14:03:48.284Z,26.23
2019-02-26T14:06:17.736Z,25.37
2019-02-26T14:08:47.131Z,26.57
2019-02-26T14:11:16.491Z,23.67
2019-02-26T14:13:46.005Z,24.67
2019-02-26T14:16:15.493Z,22.77
2019-02-26T14:18:44.964Z,22.83
2019-02-26T14:21:14.911Z,21.00
2019-02-26T14:23:44.355Z,23.13
2019-02-26T14:26:13.759Z,22.03
2019-02-26T14:28:43.123Z,23.33
2019-02-26T14:31:13.110Z,21.63
2019-02-26T14:33:45.711Z,22.77
2019-02-26T14:36:15.199Z,21.40
2019-02-26T14:38:44.592Z,23.23
2019-02-26T14:41:14.053Z,21.37
2019-02-26T14:43:43.789Z,21.80
2019-02-26T14:46:13.240Z,21.83
2019-02-26T14:48:42.678Z,29.23
2019-02-26T14:51:12.095Z,22.10
2019-02-26T14:53:41.534Z,21.07
2019-02-26T14:56:10.876Z,20.90
2019-02-26T14:58:40.269Z,20.43
2019-02-26T15:01:09.663Z,24.13
2019-02-26T15:03:39.158Z,21.27
2019-02-26T15:06:08.633Z,19.50
2019-02-26T15:08:38.087Z,21.83
2019-02-26T15:11:07.545Z,31.93
2019-02-26T15:13:36.984Z,25.10
2019-02-26T15:16:06.363Z,21.77
2019-02-26T15:18:35.888Z,22.40
2019-02-26T15:21:05.368Z,20.87
2019-02-26T15:23:34.814Z,18.83
2019-02-26T15:26:04.249Z,17.67
2019-02-26T15:28:33.731Z,58.43
2019-02-26T15:31:03.165Z,20.90
2019-02-26T15:33:32.612Z,18.33
2019-02-26T15:36:01.983Z,18.77
2019-02-26T15:38:31.672Z,24.43
2019-02-26T15:41:01.362Z,21.93
2019-02-26T15:43:30.816Z,22.53
2019-02-26T15:46:00.380Z,18.57
2019-02-26T15:48:29.798Z,23.57
2019-02-26T15:50:59.273Z,18.60
2019-02-26T15:53:29.437Z,18.27
2019-02-26T15:55:59.959Z,19.17
2019-02-26T15:58:29.571Z,18.93
2019-02-26T16:00:59.058Z,19.60
2019-02-26T16:03:29.704Z,19.50
2019-02-26T16:05:59.531Z,19.20
2019-02-26T16:08:34.519Z,19.47
2019-02-26T16:11:00.115Z,18.83
2019-02-26T16:13:29.553Z,19.60
2019-02-26T16:15:59.192Z,19.77
2019-02-26T16:18:29.617Z,18.83
2019-02-26T16:20:59.720Z,18.63
2019-02-26T16:23:29.175Z,18.27
2019-02-26T16:25:58.634Z,18.23
2019-02-26T16:28:28.115Z,18.83
2019-02-26T16:30:57.531Z,18.20
2019-02-26T16:33:26.944Z,19.83
2019-02-26T16:35:57.845Z,18.17
2019-02-26T16:38:27.525Z,21.03
2019-02-26T16:40:56.949Z,19.07
2019-02-26T16:43:26.342Z,20.73
2019-02-26T16:45:55.748Z,19.70
2019-02-26T16:48:25.172Z,19.17
2019-02-26T16:50:54.576Z,19.03
2019-02-26T16:53:24.160Z,21.33
2019-02-26T16:55:53.616Z,20.73
2019-02-26T16:58:23.059Z,23.43
2019-02-26T17:00:52.530Z,31.20
2019-02-26T17:03:22.024Z,25.47
2019-02-26T17:05:51.477Z,24.37
2019-02-26T17:08:20.887Z,22.47
2019-02-26T17:10:50.359Z,23.53
2019-02-26T17:13:19.794Z,23.40
2019-02-26T17:15:49.151Z,27.37
2019-02-26T17:18:18.582Z,29.20
2019-02-26T17:20:48.063Z,26.00
2019-02-26T17:23:17.498Z,26.63
2019-02-26T17:25:46.977Z,25.37
2019-02-26T17:28:16.637Z,25.40
2019-02-26T17:30:46.080Z,25.53
2019-02-26T17:33:15.542Z,27.83
2019-02-26T17:35:45.073Z,28.07
2019-02-26T17:38:15.498Z,28.37
2019-02-26T17:40:45.595Z,29.10
2019-02-26T17:43:15.077Z,27.60
2019-02-26T17:45:44.632Z,25.60
2019-02-26T17:48:14.138Z,27.60
2019-02-26T17:50:45.985Z,27.73
2019-02-26T17:53:14.840Z,29.47
2019-02-26T17:55:44.290Z,27.77
2019-02-26T17:58:13.848Z,28.30
2019-02-26T18:00:44.619Z,27.77
2019-02-26T18:03:14.074Z,30.30
2019-02-26T18:05:51.172Z,34.03
2019-02-26T18:08:18.848Z,36.87
2019-02-26T18:10:45.947Z,34.67
2019-02-26T18:13:15.460Z,34.87
2019-02-26T18:15:44.942Z,34.43
2019-02-26T18:18:14.473Z,34.60
2019-02-26T18:20:43.934Z,35.53
2019-02-26T18:23:13.425Z,35.87
2019-02-26T18:25:42.923Z,35.47
2019-02-26T18:28:12.354Z,35.60
2019-02-26T18:30:41.789Z,35.67
2019-02-26T18:33:11.368Z,34.60
2019-02-26T18:35:40.747Z,36.97
2019-02-26T18:38:10.213Z,37.40
2019-02-26T18:40:39.696Z,39.13
2019-02-26T18:43:09.176Z,38.57
2019-02-26T18:45:38.679Z,37.77
2019-02-26T18:48:08.339Z,35.37
2019-02-26T18:50:39.127Z,34.07
2019-02-26T18:53:08.653Z,33.73
2019-02-26T18:55:38.058Z,34.37
2019-02-26T18:58:07.700Z,34.87
2019-02-26T19:00:37.206Z,35.07
2019-02-26T19:03:09.329Z,35.37
2019-02-26T19:05:38.190Z,35.27
2019-02-26T19:08:07.776Z,35.03
2019-02-26T19:10:37.343Z,36.73
2019-02-26T19:13:07.020Z,39.37
2019-02-26T19:15:36.626Z,41.23
2019-02-26T19:18:06.239Z,40.87
2019-02-26T19:20:35.892Z,39.67
2019-02-26T19:23:05.925Z,37.87
2019-02-26T19:25:35.387Z,34.70
2019-02-26T19:28:04.988Z,35.47
2019-02-26T19:30:36.978Z,32.33
2019-02-26T19:33:06.403Z,32.70
2019-02-26T19:35:45.351Z,31.10
2019-02-26T19:38:15.452Z,32.37
2019-02-26T19:40:45.597Z,33.30
2019-02-26T19:43:15.793Z,34.33
2019-02-26T19:45:45.707Z,34.43
2019-02-26T19:48:15.709Z,34.47
2019-02-26T19:50:48.555Z,31.97
2019-02-26T19:53:17.609Z,33.20
2019-02-26T19:55:49.675Z,32.03
2019-02-26T19:58:18.879Z,31.57
2019-02-26T20:00:52.624Z,31.57
2019-02-26T20:03:21.331Z,31.87
2019-02-26T20:05:51.141Z,32.13
2019-02-26T20:08:20.729Z,33.10
2019-02-26T20:10:53.351Z,31.03
2019-02-26T20:13:21.875Z,30.70
2019-02-26T20:15:54.692Z,31.20
2019-02-26T20:18:25.856Z,29.60
2019-02-26T20:20:53.813Z,28.90
2019-02-26T20:23:23.411Z,27.50
2019-02-26T20:25:53.251Z,28.20
2019-02-26T20:28:22.726Z,30.03
2019-02-26T20:30:52.300Z,29.30
2019-02-26T20:33:22.216Z,28.53
2019-02-26T20:35:51.761Z,26.40
2019-02-26T20:38:21.197Z,29.87
2019-02-26T20:40:50.762Z,32.07
2019-02-26T20:43:20.183Z,31.70
2019-02-26T20:45:51.203Z,32.73
2019-02-26T20:48:20.789Z,33.20
2019-02-26T20:50:53.468Z,31.37
2019-02-26T20:53:21.412Z,33.13
2019-02-26T20:55:52.745Z,30.43
2019-02-26T20:58:22.065Z,28.73
2019-02-26T21:00:51.439Z,28.03
2019-02-26T21:03:20.890Z,26.63
2019-02-26T21:05:50.386Z,27.80
2019-02-26T21:08:19.840Z,26.93
2019-02-26T21:10:49.291Z,25.93
2019-02-26T21:13:18.835Z,25.33
2019-02-26T21:15:48.284Z,25.50
2019-02-26T21:18:17.677Z,24.00
2019-02-26T21:20:49.160Z,23.70
2019-02-26T21:23:18.332Z,22.97
2019-02-26T21:25:48.042Z,23.47
2019-02-26T21:28:17.479Z,22.93
2019-02-26T21:30:46.945Z,21.43
2019-02-26T21:33:16.345Z,21.30
2019-02-26T21:35:45.874Z,22.37
2019-02-26T21:38:15.277Z,21.37
2019-02-26T21:40:48.690Z,19.43
2019-02-26T21:43:15.830Z,19.57
2019-02-26T21:45:49.117Z,19.27
2019-02-26T21:48:16.497Z,18.20
2019-02-26T21:50:45.908Z,20.30
2019-02-26T21:53:15.979Z,19.50
2019-02-26T21:55:46.027Z,20.17
2019-02-26T21:58:15.403Z,20.07
2019-02-26T22:00:44.782Z,17.83
2019-02-26T22:03:14.130Z,16.77
2019-02-26T22:05:43.623Z,16.67
2019-02-26T22:08:13.057Z,14.43
2019-02-26T22:10:42.843Z,13.83
2019-02-26T22:13:12.984Z,12.53
2019-02-26T22:15:44.567Z,12.73
2019-02-26T22:18:13.546Z,12.67
2019-02-26T22:20:43.892Z,11.33
2019-02-26T22:23:14.893Z,12.57
2019-02-26T22:25:44.364Z,12.33
2019-02-26T22:28:13.898Z,12.53
2019-02-26T22:30:43.315Z,13.17
2019-02-26T22:33:12.690Z,12.20
2019-02-26T22:35:42.077Z,11.00
2019-02-26T22:38:12.692Z,11.27
2019-02-26T22:40:42.614Z,12.10
2019-02-26T22:43:13.803Z,11.60
2019-02-26T22:45:43.114Z,10.83
2019-02-26T22:48:13.693Z,10.13
2019-02-26T22:50:43.596Z,10.03
2019-02-26T22:53:12.997Z,9.27
2019-02-26T22:55:42.412Z,9.10
2019-02-26T22:58:11.766Z,10.23
2019-02-26T23:01:30.367Z,11.00
2019-02-26T23:03:53.700Z,9.80
2019-02-26T23:06:23.185Z,10.97
2019-02-26T23:08:52.559Z,10.23
2019-02-26T23:11:22.307Z,9.70
2019-02-26T23:13:51.783Z,10.27
2019-02-26T23:16:21.330Z,10.20
2019-02-26T23:18:50.858Z,9.67
2019-02-26T23:21:20.662Z,10.30
2019-02-26T23:23:50.079Z,14.80
2019-02-26T23:26:19.583Z,24.80
2019-02-26T23:28:49.087Z,24.33
2019-02-26T23:31:20.311Z,19.43
2019-02-26T23:33:49.685Z,15.10
2019-02-26T23:36:19.155Z,17.17
2019-02-26T23:38:48.908Z,14.23
2019-02-26T23:41:18.384Z,12.27
2019-02-26T23:43:47.791Z,10.87
2019-02-26T23:46:17.262Z,11.57
2019-02-26T23:48:46.622Z,15.50
2019-02-26T23:51:20.111Z,13.97
2019-02-26T23:53:47.279Z,14.60
2019-02-26T23:56:18.974Z,13.83
2019-02-26T23:58:47.794Z,12.87
